ADDS METAR Data INFO
IDs: Format: Raw Decoded Include TAF

Data at: 1900 UTC 22 Sep 2017

METAR for:PAKF (False Pass Arpt, AK, US)
Text:PAKF 221853Z AUTO 33013G19KT 9SM -RA BKN013 BKN019 OVC060 08/07 A2963 RMK AO2 P0003 $
Temperature: 8.0°C ( 46°F)
Dewpoint: 7.0°C ( 45°F) [RH = 93%]
Pressure (altimeter):29.63 inches Hg (1003.5 mb)
Winds:from the NNW (330 degrees) at 15 MPH (13 knots; 6.7 m/s) gusting to 22 MPH (19 knots; 9.8 m/s)
Visibility: 9 sm ( 14 km)
Ceiling:1300 feet AGL
Clouds: broken clouds at 1300 feet AGL, broken clouds at 1900 feet AGL, overcast cloud deck at 6000 feet AGL
Weather:-RA (light rain)
QC Flag:automated observation with no human augmentation; SOME DATA ABOVE MAY BE INACCURATE!!!"$" is an indication the sensor requires maintenance.
Text:PAKF 221801Z AUTO 32013G18KT 10SM -RA SCT018 BKN025 OVC036 09/07 A2961 RMK AO2 P0003 $
Temperature: 9.0°C ( 48°F)
Dewpoint: 7.0°C ( 45°F) [RH = 87%]
Pressure (altimeter):29.61 inches Hg (1002.8 mb)
Winds:from the NW (320 degrees) at 15 MPH (13 knots; 6.7 m/s) gusting to 21 MPH (18 knots; 9.3 m/s)
Visibility:10 or more sm (16+ km)
Ceiling:2500 feet AGL
Clouds: scattered clouds at 1800 feet AGL, broken clouds at 2500 feet AGL, overcast cloud deck at 3600 feet AGL
Weather:-RA (light rain)
QC Flag:automated observation with no human augmentation; SOME DATA ABOVE MAY BE INACCURATE!!!"$" is an indication the sensor requires maintenance.
Text:PAKF 221719Z AUTO 33013G21KT 9SM -RA FEW017 BKN030 OVC038 09/07 A2960 RMK AO2 SLP118 P0004 T00890072 $
Temperature: 8.9°C ( 48°F)
Dewpoint: 7.2°C ( 45°F) [RH = 89%]
Pressure (altimeter):29.60 inches Hg (1002.5 mb) [Sea level pressure: 1011.8 mb]
Winds:from the NNW (330 degrees) at 15 MPH (13 knots; 6.7 m/s) gusting to 24 MPH (21 knots; 10.8 m/s)
Visibility: 9 sm ( 14 km)
Ceiling:3000 feet AGL
Clouds: few clouds at 1700 feet AGL, broken clouds at 3000 feet AGL, overcast cloud deck at 3800 feet AGL
Weather:-RA (light rain)
QC Flag:automated observation with no human augmentation; SOME DATA ABOVE MAY BE INACCURATE!!!"$" is an indication the sensor requires maintenance.
Text:PAKF 221701Z AUTO 31011G19KT 270V340 8SM -RA FEW017 BKN030 OVC035 09/07 A2960 RMK AO2 P0004 $
Temperature: 9.0°C ( 48°F)
Dewpoint: 7.0°C ( 45°F) [RH = 87%]
Pressure (altimeter):29.60 inches Hg (1002.5 mb)
Winds:from the NW (310 degrees) at 13 MPH (11 knots; 5.7 m/s) gusting to 22 MPH (19 knots; 9.8 m/s)
Visibility: 8 sm ( 13 km)
Ceiling:3000 feet AGL
Clouds: few clouds at 1700 feet AGL, broken clouds at 3000 feet AGL, overcast cloud deck at 3500 feet AGL
Weather:-RA (light rain)
QC Flag:automated observation with no human augmentation; SOME DATA ABOVE MAY BE INACCURATE!!!"$" is an indication the sensor requires maintenance.
Text:PAKF 221652Z AUTO 32012G20KT 6SM -RA BR FEW017 BKN029 OVC037 09/07 A2960 RMK AO2 P0003 $
Temperature: 9.0°C ( 48°F)
Dewpoint: 7.0°C ( 45°F) [RH = 87%]
Pressure (altimeter):29.60 inches Hg (1002.5 mb)
Winds:from the NW (320 degrees) at 14 MPH (12 knots; 6.2 m/s) gusting to 23 MPH (20 knots; 10.3 m/s)
Visibility: 6 sm ( 10 km)
Ceiling:2900 feet AGL
Clouds: few clouds at 1700 feet AGL, broken clouds at 2900 feet AGL, overcast cloud deck at 3700 feet AGL
Weather:-RA BR (light rain, mist)
QC Flag:automated observation with no human augmentation; SOME DATA ABOVE MAY BE INACCURATE!!!"$" is an indication the sensor requires maintenance.
Text:PAKF 221645Z AUTO 32011G20KT 8SM -RA FEW019 SCT025 OVC034 09/07 A2960 RMK AO2 P0003 $
Temperature: 9.0°C ( 48°F)
Dewpoint: 7.0°C ( 45°F) [RH = 87%]
Pressure (altimeter):29.60 inches Hg (1002.5 mb)
Winds:from the NW (320 degrees) at 13 MPH (11 knots; 5.7 m/s) gusting to 23 MPH (20 knots; 10.3 m/s)
Visibility: 8 sm ( 13 km)
Ceiling:3400 feet AGL
Clouds: few clouds at 1900 feet AGL, scattered clouds at 2500 feet AGL, overcast cloud deck at 3400 feet AGL
Weather:-RA (light rain)
QC Flag:automated observation with no human augmentation; SOME DATA ABOVE MAY BE INACCURATE!!!"$" is an indication the sensor requires maintenance.
Text:PAKF 221601Z AUTO 32009G18KT 9SM -RA BKN019 OVC026 09/06 A2960 RMK AO2 SLP116 P0001 T00890061 $
Temperature: 8.9°C ( 48°F)
Dewpoint: 6.1°C ( 43°F) [RH = 83%]
Pressure (altimeter):29.60 inches Hg (1002.5 mb) [Sea level pressure: 1011.6 mb]
Winds:from the NW (320 degrees) at 10 MPH (9 knots; 4.6 m/s) gusting to 21 MPH (18 knots; 9.3 m/s)
Visibility: 9 sm ( 14 km)
Ceiling:1900 feet AGL
Clouds: broken clouds at 1900 feet AGL, overcast cloud deck at 2600 feet AGL
Weather:-RA (light rain)
QC Flag:automated observation with no human augmentation; SOME DATA ABOVE MAY BE INACCURATE!!!"$" is an indication the sensor requires maintenance.
Text:PAKF 221501Z AUTO 33014G18KT 9SM -RA OVC017 08/07 A2960 RMK AO2 SLP116 P0000 60009 T00830067 58001 $
Temperature: 8.3°C ( 47°F)
Dewpoint: 6.7°C ( 44°F) [RH = 90%]
Pressure (altimeter):29.60 inches Hg (1002.5 mb) [Sea level pressure: 1011.6 mb]
Winds:from the NNW (330 degrees) at 16 MPH (14 knots; 7.2 m/s) gusting to 21 MPH (18 knots; 9.3 m/s)
Visibility: 9 sm ( 14 km)
Ceiling:1700 feet AGL
Clouds: overcast cloud deck at 1700 feet AGL
Weather:-RA (light rain)
QC Flag:automated observation with no human augmentation; SOME DATA ABOVE MAY BE INACCURATE!!!"$" is an indication the sensor requires maintenance.
Text:PAKF 221421Z AUTO 32013G22KT 5SM -RA BR BKN016 BKN021 OVC029 08/06 A2960 RMK AO2 P0000 $
Temperature: 8.0°C ( 46°F)
Dewpoint: 6.0°C ( 43°F) [RH = 87%]
Pressure (altimeter):29.60 inches Hg (1002.5 mb)
Winds:from the NW (320 degrees) at 15 MPH (13 knots; 6.7 m/s) gusting to 25 MPH (22 knots; 11.3 m/s)
Visibility: 5 sm ( 8 km)
Ceiling:1600 feet AGL
Clouds: broken clouds at 1600 feet AGL, broken clouds at 2100 feet AGL, overcast cloud deck at 2900 feet AGL
Weather:-RA BR (light rain, mist)
QC Flag:automated observation with no human augmentation; SOME DATA ABOVE MAY BE INACCURATE!!!"$" is an indication the sensor requires maintenance.
Text:PAKF 221409Z AUTO 32014G19KT 4SM -RA BR BKN014 OVC021 08/07 A2960 RMK AO2 P0000 $
Temperature: 8.0°C ( 46°F)
Dewpoint: 7.0°C ( 45°F) [RH = 93%]
Pressure (altimeter):29.60 inches Hg (1002.5 mb)
Winds:from the NW (320 degrees) at 16 MPH (14 knots; 7.2 m/s) gusting to 22 MPH (19 knots; 9.8 m/s)
Visibility: 4 sm ( 6 km)
Ceiling:1400 feet AGL
Clouds: broken clouds at 1400 feet AGL, overcast cloud deck at 2100 feet AGL
Weather:-RA BR (light rain, mist)
QC Flag:automated observation with no human augmentation; SOME DATA ABOVE MAY BE INACCURATE!!!"$" is an indication the sensor requires maintenance.
Text:PAKF 221401Z AUTO 31013G19KT 5SM -RA BR SCT014 OVC021 08/07 A2960 RMK AO2 SLP116 P0001 T00830067 $
Temperature: 8.3°C ( 47°F)
Dewpoint: 6.7°C ( 44°F) [RH = 90%]
Pressure (altimeter):29.60 inches Hg (1002.5 mb) [Sea level pressure: 1011.6 mb]
Winds:from the NW (310 degrees) at 15 MPH (13 knots; 6.7 m/s) gusting to 22 MPH (19 knots; 9.8 m/s)
Visibility: 5 sm ( 8 km)
Ceiling:2100 feet AGL
Clouds: scattered clouds at 1400 feet AGL, overcast cloud deck at 2100 feet AGL
Weather:-RA BR (light rain, mist)
QC Flag:automated observation with no human augmentation; SOME DATA ABOVE MAY BE INACCURATE!!!"$" is an indication the sensor requires maintenance.
Text:PAKF 221333Z AUTO 32012G20KT 3SM -RA BR OVC015 08/07 A2960 RMK AO2 P0000 $
Temperature: 8.0°C ( 46°F)
Dewpoint: 7.0°C ( 45°F) [RH = 93%]
Pressure (altimeter):29.60 inches Hg (1002.5 mb)
Winds:from the NW (320 degrees) at 14 MPH (12 knots; 6.2 m/s) gusting to 23 MPH (20 knots; 10.3 m/s)
Visibility: 3 sm ( 5 km)
Ceiling:1500 feet AGL
Clouds: overcast cloud deck at 1500 feet AGL
Weather:-RA BR (light rain, mist)
QC Flag:automated observation with no human augmentation; SOME DATA ABOVE MAY BE INACCURATE!!!"$" is an indication the sensor requires maintenance.
Text:PAKF 221301Z AUTO 33010G19KT 5SM -RA BR OVC013 08/07 A2960 RMK AO2 SLPNO P0000 T00830067 $
Temperature: 8.3°C ( 47°F)
Dewpoint: 6.7°C ( 44°F) [RH = 90%]
Pressure (altimeter):29.60 inches Hg (1002.5 mb)
Winds:from the NNW (330 degrees) at 12 MPH (10 knots; 5.1 m/s) gusting to 22 MPH (19 knots; 9.8 m/s)
Visibility: 5 sm ( 8 km)
Ceiling:1300 feet AGL
Clouds: overcast cloud deck at 1300 feet AGL
Weather:-RA BR (light rain, mist)
QC Flag:automated observation with no human augmentation; SOME DATA ABOVE MAY BE INACCURATE!!!"$" is an indication the sensor requires maintenance.

TAF for:PAKF (False Pass Arpt, AK, US)
Text:No data found